Time;durP1;ratioP1;P1;durP2;ratioP2;P2;SDS_P1;SDS_P2;PMS_P1;PMS_P2;Temp;Humidity;BMP_temperature;BMP_pressure;BME280_temperature;BME280_humidity;BME280_pressure;Samples;Min_cycle;Max_cycle;Signal;HPM_P1;HPM_P2
2023/03/09 00:01:21;;;;;;;22.17;9.82;;;1.40;99.90;;;;;;5040661;28;20449;-65
2023/03/09 00:03:47;;;;;;;21.83;9.52;;;1.40;99.90;;;;;;5041161;28;20036;-65
2023/03/09 00:06:13;;;;;;;20.05;9.68;;;1.30;99.90;;;;;;5043635;28;20141;-65
2023/03/09 00:08:38;;;;;;;22.67;10.02;;;1.40;99.90;;;;;;5031153;28;21045;-65
2023/03/09 00:11:05;;;;;;;20.67;11.00;;;1.40;99.90;;;;;;5046698;28;20114;-65
2023/03/09 00:13:31;;;;;;;19.63;9.25;;;1.40;99.90;;;;;;5038433;28;20077;-66
2023/03/09 00:15:57;;;;;;;18.92;10.15;;;1.40;99.90;;;;;;5046607;28;20052;-64
2023/03/09 00:18:23;;;;;;;18.25;9.13;;;1.40;99.90;;;;;;5043225;28;20602;-67
2023/03/09 00:20:48;;;;;;;20.25;9.38;;;1.30;99.90;;;;;;5044951;28;20068;-66
2023/03/09 00:23:17;;;;;;;18.25;8.70;;;1.30;99.90;;;;;;5044612;28;20488;-65
2023/03/09 00:25:44;;;;;;;26.20;11.32;;;1.30;99.90;;;;;;5040013;28;20128;-66
2023/03/09 00:28:09;;;;;;;21.20;9.65;;;1.30;99.90;;;;;;5035223;28;20037;-68
2023/03/09 00:30:35;;;;;;;18.85;9.38;;;1.30;99.90;;;;;;5033823;28;20066;-64
2023/03/09 00:33:01;;;;;;;21.23;9.52;;;1.20;99.90;;;;;;5011303;28;22614;-66
2023/03/09 00:35:27;;;;;;;20.98;9.65;;;1.20;99.90;;;;;;5037634;28;20485;-65
2023/03/09 00:37:53;;;;;;;20.30;9.80;;;1.20;99.90;;;;;;5036868;28;20175;-66
2023/03/09 00:40:19;;;;;;;22.70;9.38;;;1.10;99.90;;;;;;5038372;28;20044;-65
2023/03/09 00:42:45;;;;;;;23.40;9.80;;;1.10;99.90;;;;;;5037217;28;20040;-67
2023/03/09 00:45:12;;;;;;;21.27;9.93;;;1.10;99.90;;;;;;5031301;28;20088;-65
2023/03/09 00:47:39;;;;;;;21.92;9.57;;;1.00;99.90;;;;;;5040914;28;20037;-66
2023/03/09 00:50:06;;;;;;;21.05;9.80;;;1.10;99.90;;;;;;5036022;28;20042;-65
2023/03/09 00:52:31;;;;;;;23.08;10.02;;;1.00;99.90;;;;;;5036486;28;20554;-65
2023/03/09 00:54:58;;;;;;;19.42;9.88;;;1.00;99.90;;;;;;5041090;28;20040;-65
2023/03/09 00:57:25;;;;;;;20.70;10.13;;;1.00;99.90;;;;;;5041271;28;20037;-65
2023/03/09 00:59:51;;;;;;;19.33;9.13;;;1.00;99.90;;;;;;5043924;28;20045;-66
2023/03/09 01:02:19;;;;;;;19.35;8.02;;;1.00;99.90;;;;;;5046053;28;20041;-68
2023/03/09 01:04:46;;;;;;;19.65;8.80;;;1.00;99.90;;;;;;5040077;28;20042;-65
2023/03/09 01:07:12;;;;;;;19.42;8.35;;;1.00;99.90;;;;;;5038978;28;20049;-65
2023/03/09 01:09:38;;;;;;;19.42;10.13;;;1.00;99.90;;;;;;5035773;28;20536;-67
2023/03/09 01:12:04;;;;;;;17.25;8.65;;;1.00;99.90;;;;;;5043429;28;20065;-64
2023/03/09 01:14:30;;;;;;;14.85;7.57;;;1.00;99.90;;;;;;5045856;28;20037;-68
2023/03/09 01:16:56;;;;;;;21.70;9.45;;;1.00;99.90;;;;;;5017887;28;20041;-66
2023/03/09 01:19:22;;;;;;;20.70;8.38;;;1.00;99.90;;;;;;5043913;28;20087;-64
2023/03/09 01:21:47;;;;;;;22.58;9.82;;;1.00;99.90;;;;;;5043574;28;20037;-65
2023/03/09 01:24:13;;;;;;;18.13;9.25;;;1.00;99.90;;;;;;5039560;28;20500;-65
2023/03/09 01:26:38;;;;;;;19.85;9.25;;;1.00;99.90;;;;;;5039093;28;20047;-65
2023/03/09 01:29:04;;;;;;;17.38;8.25;;;0.90;99.90;;;;;;5033650;28;20132;-68
2023/03/09 01:31:29;;;;;;;23.15;9.90;;;0.90;99.90;;;;;;5036433;28;20099;-65
2023/03/09 01:33:55;;;;;;;20.50;9.52;;;0.90;99.90;;;;;;5035152;28;20064;-65
2023/03/09 01:36:21;;;;;;;19.92;9.10;;;0.90;99.90;;;;;;5035525;28;20037;-67
2023/03/09 01:38:47;;;;;;;20.83;9.65;;;0.90;99.90;;;;;;5041495;28;20445;-65
2023/03/09 01:41:14;;;;;;;22.15;9.45;;;0.80;99.90;;;;;;5048883;28;20041;-65
2023/03/09 01:43:45;;;;;;;21.23;9.50;;;0.80;99.90;;;;;;5045869;28;20120;-64
2023/03/09 01:46:28;;;;;;;19.40;9.13;;;0.80;99.90;;;;;;5032589;28;20044;-65
2023/03/09 01:49:05;;;;;;;18.27;8.73;;;0.80;99.90;;;;;;5034260;28;20068;-65
2023/03/09 01:51:37;;;;;;;19.75;8.35;;;0.80;99.90;;;;;;5032402;28;20367;-65
2023/03/09 01:54:06;;;;;;;19.98;8.45;;;0.70;99.90;;;;;;5034580;28;20101;-67
2023/03/09 01:56:32;;;;;;;16.83;7.88;;;0.80;99.90;;;;;;5035595;28;20049;-63
2023/03/09 01:59:00;;;;;;;20.10;8.55;;;0.80;99.90;;;;;;5039785;28;20096;-67
2023/03/09 02:01:26;;;;;;;16.42;7.75;;;0.80;99.90;;;;;;5045746;28;20095;-65
2023/03/09 02:03:57;;;;;;;17.98;8.10;;;0.80;99.90;;;;;;5017343;28;21982;-65
2023/03/09 02:06:23;;;;;;;19.08;7.55;;;0.80;99.90;;;;;;5038628;28;20453;-66
2023/03/09 02:09:18;;;;;;;16.88;7.53;;;0.80;99.90;;;;;;5044492;28;20523;-66
2023/03/09 02:11:44;;;;;;;16.10;8.05;;;0.80;99.90;;;;;;5045707;28;20045;-65
2023/03/09 02:14:10;;;;;;;19.25;8.18;;;0.80;99.90;;;;;;5047246;28;20044;-64
2023/03/09 02:16:36;;;;;;;17.75;7.97;;;0.80;99.90;;;;;;5044258;28;20377;-66
2023/03/09 02:19:02;;;;;;;19.05;8.73;;;0.80;99.90;;;;;;5047650;28;20041;-67
2023/03/09 02:21:48;;;;;;;17.90;8.10;;;0.70;99.90;;;;;;5046946;28;20045;-64
2023/03/09 02:24:38;;;;;;;16.55;7.22;;;0.70;99.90;;;;;;5046775;28;20036;-65
2023/03/09 02:27:19;;;;;;;18.92;8.32;;;0.70;99.90;;;;;;5039873;28;20041;-65
2023/03/09 02:29:46;;;;;;;13.25;7.18;;;0.70;99.90;;;;;;5045010;28;20493;-67
2023/03/09 02:32:11;;;;;;;17.15;7.43;;;0.70;99.90;;;;;;5044946;28;20184;-67
2023/03/09 02:34:37;;;;;;;15.30;7.53;;;0.70;99.90;;;;;;5044801;28;20628;-65
2023/03/09 02:37:03;;;;;;;18.27;7.65;;;0.70;99.90;;;;;;5049938;28;20515;-65
2023/03/09 02:39:48;;;;;;;17.83;8.38;;;0.70;99.90;;;;;;5048351;28;20149;-65
2023/03/09 02:42:14;;;;;;;18.17;8.02;;;0.70;99.90;;;;;;5022630;28;20053;-64
2023/03/09 02:44:40;;;;;;;20.30;9.05;;;0.70;99.90;;;;;;5034852;28;20045;-66
2023/03/09 02:47:15;;;;;;;16.52;8.30;;;0.70;99.90;;;;;;5041366;28;20033;-65
2023/03/09 02:49:40;;;;;;;19.80;8.23;;;0.70;99.90;;;;;;5048014;28;20508;-65
2023/03/09 02:52:06;;;;;;;20.25;9.27;;;0.70;99.90;;;;;;5045202;28;20040;-64
2023/03/09 02:54:31;;;;;;;21.13;9.30;;;0.70;99.90;;;;;;5037406;28;20049;-64
2023/03/09 02:56:57;;;;;;;19.48;8.60;;;0.70;99.90;;;;;;5036321;28;20040;-64
2023/03/09 02:59:22;;;;;;;14.85;7.30;;;0.70;99.90;;;;;;5035496;28;20053;-65
2023/03/09 03:01:48;;;;;;;25.67;9.75;;;0.70;99.90;;;;;;5037632;28;20045;-64
2023/03/09 03:04:13;;;;;;;19.17;8.75;;;0.80;99.90;;;;;;5041458;28;20183;-65
2023/03/09 03:06:39;;;;;;;21.20;9.23;;;0.70;99.90;;;;;;5041542;28;20036;-65
2023/03/09 03:09:05;;;;;;;19.65;8.88;;;0.70;99.90;;;;;;5039555;28;20045;-66
2023/03/09 03:11:31;;;;;;;15.70;8.02;;;0.80;99.90;;;;;;5045837;28;20823;-66
2023/03/09 03:13:57;;;;;;;21.17;8.15;;;0.80;99.90;;;;;;5042709;28;20045;-65
2023/03/09 03:16:22;;;;;;;15.00;7.82;;;0.80;99.90;;;;;;5046085;28;20048;-64
2023/03/09 03:18:48;;;;;;;17.63;8.10;;;0.80;99.90;;;;;;5044083;28;20033;-64
2023/03/09 03:21:13;;;;;;;18.60;7.95;;;0.80;99.90;;;;;;5045799;28;20389;-64
2023/03/09 03:23:39;;;;;;;17.20;8.38;;;0.80;99.90;;;;;;5045572;28;20040;-64
2023/03/09 03:26:09;;;;;;;19.60;8.70;;;0.80;99.90;;;;;;5042874;28;20045;-67
2023/03/09 03:28:34;;;;;;;19.35;8.57;;;0.80;99.90;;;;;;5043364;28;21968;-64
2023/03/09 03:31:00;;;;;;;18.85;8.90;;;0.80;99.90;;;;;;5042006;28;20041;-66
2023/03/09 03:33:27;;;;;;;18.30;8.65;;;0.80;99.90;;;;;;5046598;28;20037;-65
2023/03/09 03:35:52;;;;;;;17.38;8.90;;;0.80;99.90;;;;;;5048442;28;20045;-65
2023/03/09 03:38:18;;;;;;;22.92;10.07;;;0.80;99.90;;;;;;5050864;28;20025;-66
2023/03/09 03:40:43;;;;;;;22.20;9.57;;;0.80;99.90;;;;;;5052696;28;20037;-65
2023/03/09 03:43:09;;;;;;;20.55;9.82;;;0.80;99.90;;;;;;5046295;28;20041;-67
2023/03/09 03:45:34;;;;;;;21.55;9.55;;;0.80;99.90;;;;;;5035866;28;20057;-65
2023/03/09 03:48:00;;;;;;;21.80;9.75;;;0.70;99.90;;;;;;5030807;28;20095;-65
2023/03/09 03:50:26;;;;;;;24.25;11.30;;;0.80;99.90;;;;;;5048175;28;20049;-65
2023/03/09 03:52:51;;;;;;;22.58;10.10;;;0.70;99.90;;;;;;5041755;28;20037;-65
2023/03/09 03:55:17;;;;;;;24.15;10.50;;;0.80;99.90;;;;;;5046751;28;20029;-64
2023/03/09 03:57:42;;;;;;;21.65;10.15;;;0.80;99.90;;;;;;5049315;28;20125;-65
2023/03/09 04:00:11;;;;;;;25.77;10.70;;;0.70;99.90;;;;;;5043017;28;20059;-65
2023/03/09 04:02:38;;;;;;;26.15;12.25;;;0.70;99.90;;;;;;5019683;28;20033;-64
2023/03/09 04:05:04;;;;;;;23.98;11.07;;;0.70;99.90;;;;;;5019701;28;20049;-67
2023/03/09 04:07:29;;;;;;;26.30;11.50;;;0.70;99.90;;;;;;5040622;28;20029;-65
2023/03/09 04:09:55;;;;;;;25.55;11.43;;;0.70;99.90;;;;;;5041039;28;20137;-65
2023/03/09 04:12:20;;;;;;;28.20;12.10;;;0.70;99.90;;;;;;5044279;28;20033;-65
2023/03/09 04:14:46;;;;;;;25.05;11.05;;;0.70;99.90;;;;;;5031097;28;20032;-66
2023/03/09 04:17:11;;;;;;;25.48;11.32;;;0.70;99.90;;;;;;5043209;28;20039;-65
2023/03/09 04:19:37;;;;;;;26.15;11.05;;;0.70;99.90;;;;;;5042043;28;20037;-65
2023/03/09 04:22:03;;;;;;;28.00;12.35;;;0.70;99.90;;;;;;5044517;28;20136;-66
2023/03/09 04:24:28;;;;;;;24.02;11.10;;;0.70;99.90;;;;;;5043748;28;20047;-64
2023/03/09 04:26:54;;;;;;;26.23;12.70;;;0.60;99.90;;;;;;5018772;28;20083;-67
2023/03/09 04:29:20;;;;;;;31.38;13.65;;;0.70;99.90;;;;;;5040976;28;20102;-65
2023/03/09 04:31:46;;;;;;;29.15;11.60;;;0.70;99.90;;;;;;5045582;28;20052;-67
2023/03/09 04:34:12;;;;;;;30.38;12.95;;;0.70;99.90;;;;;;5037697;28;20466;-65
2023/03/09 04:36:38;;;;;;;32.03;12.85;;;0.70;99.90;;;;;;5035557;28;20064;-66
2023/03/09 04:39:06;;;;;;;28.15;12.80;;;0.70;99.90;;;;;;5045459;28;20071;-65
2023/03/09 04:41:32;;;;;;;31.70;12.73;;;0.70;99.90;;;;;;5046227;28;20056;-64
2023/03/09 04:43:58;;;;;;;32.92;13.75;;;0.70;99.90;;;;;;5042356;28;20045;-65
2023/03/09 04:46:24;;;;;;;31.15;13.35;;;0.70;99.90;;;;;;5041258;28;20500;-65
2023/03/09 04:48:50;;;;;;;29.25;13.40;;;0.70;99.90;;;;;;5038481;28;20040;-65
2023/03/09 04:51:15;;;;;;;32.17;12.80;;;0.70;99.90;;;;;;5029871;28;20048;-67
2023/03/09 04:53:41;;;;;;;34.92;13.35;;;0.70;99.90;;;;;;5034914;28;20037;-67
2023/03/09 04:56:07;;;;;;;29.45;12.70;;;0.70;99.90;;;;;;5036305;28;20068;-65
2023/03/09 04:58:32;;;;;;;31.48;13.43;;;0.70;99.90;;;;;;5036757;28;20044;-65
2023/03/09 05:01:00;;;;;;;28.60;12.32;;;0.70;99.90;;;;;;5011704;28;20049;-64
2023/03/09 05:03:26;;;;;;;33.47;14.18;;;0.60;99.90;;;;;;5020745;28;21076;-65
2023/03/09 05:05:52;;;;;;;31.25;13.13;;;0.60;99.90;;;;;;5043095;28;20045;-65
2023/03/09 05:08:17;;;;;;;27.83;12.35;;;0.60;99.90;;;;;;5041839;28;20074;-64
2023/03/09 05:10:43;;;;;;;32.13;14.55;;;0.60;99.90;;;;;;5016495;28;20041;-64
2023/03/09 05:13:09;;;;;;;34.88;13.77;;;0.60;99.90;;;;;;5044760;28;20037;-66
2023/03/09 05:15:38;;;;;;;35.58;13.23;;;0.60;99.90;;;;;;5046955;28;20484;-64
2023/03/09 05:18:04;;;;;;;32.28;13.15;;;0.60;99.90;;;;;;5045208;28;20041;-64
2023/03/09 05:20:29;;;;;;;33.15;12.85;;;0.60;99.90;;;;;;5042451;28;20037;-66
2023/03/09 05:22:55;;;;;;;33.78;13.40;;;0.60;99.90;;;;;;5021750;28;20040;-66
2023/03/09 05:25:22;;;;;;;29.83;13.32;;;0.60;99.90;;;;;;5014394;28;20037;-66
2023/03/09 05:27:48;;;;;;;34.90;14.40;;;0.60;99.90;;;;;;5044042;28;20616;-65
2023/03/09 05:30:13;;;;;;;32.45;13.82;;;0.50;99.90;;;;;;5040768;28;20042;-65
2023/03/09 05:32:39;;;;;;;32.17;12.88;;;0.50;99.90;;;;;;5024608;28;20055;-65
2023/03/09 05:35:05;;;;;;;29.83;14.45;;;0.50;99.90;;;;;;5048911;28;20060;-65
2023/03/09 05:37:33;;;;;;;31.80;14.23;;;0.50;99.90;;;;;;5032550;28;20033;-66
2023/03/09 05:39:58;;;;;;;32.35;13.50;;;0.50;99.90;;;;;;5048275;28;20064;-65
2023/03/09 05:42:24;;;;;;;36.95;13.15;;;0.50;99.90;;;;;;5048168;28;20484;-64
2023/03/09 05:44:49;;;;;;;28.40;12.35;;;0.40;99.90;;;;;;5045845;28;20037;-67
2023/03/09 05:47:15;;;;;;;27.67;13.32;;;0.40;99.90;;;;;;5048709;28;20037;-67
2023/03/09 05:49:40;;;;;;;27.02;12.80;;;0.40;99.90;;;;;;5043020;28;20037;-65
2023/03/09 05:52:06;;;;;;;30.33;12.82;;;0.40;99.90;;;;;;5041417;28;20568;-66
2023/03/09 05:54:32;;;;;;;26.77;10.55;;;0.40;99.90;;;;;;5041256;28;20040;-65
2023/03/09 05:56:58;;;;;;;29.95;12.68;;;0.50;99.90;;;;;;5051418;28;20461;-67
2023/03/09 05:59:24;;;;;;;35.65;13.77;;;0.40;99.90;;;;;;5034716;28;20136;-65
2023/03/09 06:01:49;;;;;;;29.67;11.85;;;0.50;99.90;;;;;;5036287;28;20045;-66
2023/03/09 06:04:15;;;;;;;32.50;13.02;;;0.50;99.90;;;;;;5015174;28;20477;-64
2023/03/09 06:06:40;;;;;;;28.95;12.63;;;0.50;99.90;;;;;;5041500;28;20044;-67
2023/03/09 06:09:06;;;;;;;28.38;12.55;;;0.50;99.90;;;;;;5040184;28;20128;-66
2023/03/09 06:11:31;;;;;;;29.38;11.88;;;0.50;99.90;;;;;;5040035;28;20076;-67
2023/03/09 06:13:57;;;;;;;28.65;13.18;;;0.50;99.90;;;;;;5037558;28;20242;-67
2023/03/09 06:16:24;;;;;;;28.15;12.63;;;0.50;99.90;;;;;;5041893;28;22706;-64
2023/03/09 06:18:50;;;;;;;26.92;10.63;;;0.50;99.90;;;;;;5047597;28;20041;-67
2023/03/09 06:21:16;;;;;;;29.33;11.95;;;0.60;99.90;;;;;;5033620;28;20036;-65
2023/03/09 06:23:41;;;;;;;26.38;11.73;;;0.60;99.90;;;;;;5014232;28;20056;-64
2023/03/09 06:26:10;;;;;;;29.02;11.93;;;0.60;99.90;;;;;;5038202;28;20033;-66
2023/03/09 06:28:36;;;;;;;26.13;12.07;;;0.60;99.90;;;;;;5035663;28;20195;-65
2023/03/09 06:31:06;;;;;;;25.48;11.57;;;0.60;99.90;;;;;;5040086;28;20119;-65
2023/03/09 06:33:32;;;;;;;33.90;13.00;;;0.60;99.90;;;;;;5044113;28;20171;-64
2023/03/09 06:36:00;;;;;;;27.80;13.15;;;0.60;99.90;;;;;;5047774;28;20127;-65
2023/03/09 06:38:25;;;;;;;29.50;11.73;;;0.70;99.90;;;;;;5041320;28;20056;-66
2023/03/09 06:40:54;;;;;;;27.00;11.65;;;0.70;99.90;;;;;;5043414;28;20496;-66
2023/03/09 06:43:20;;;;;;;27.45;12.18;;;0.70;99.90;;;;;;5021074;28;20041;-65
2023/03/09 06:45:46;;;;;;;24.67;11.00;;;0.80;99.90;;;;;;5039270;28;20047;-64
2023/03/09 06:48:12;;;;;;;25.48;11.63;;;0.70;99.90;;;;;;5038920;28;20045;-64
2023/03/09 06:50:37;;;;;;;26.85;11.57;;;0.80;99.90;;;;;;5046823;28;20029;-65
2023/03/09 06:53:03;;;;;;;27.13;10.95;;;0.80;99.90;;;;;;5042864;28;20041;-66
2023/03/09 06:55:29;;;;;;;23.33;11.15;;;0.80;99.90;;;;;;5034175;28;20037;-65
2023/03/09 06:57:54;;;;;;;26.90;11.85;;;0.80;99.90;;;;;;5040159;28;20051;-65
2023/03/09 07:00:20;;;;;;;26.13;11.48;;;0.80;99.90;;;;;;5042447;28;20444;-67
2023/03/09 07:02:46;;;;;;;23.75;10.68;;;0.80;99.90;;;;;;5041002;28;20354;-66
2023/03/09 07:05:12;;;;;;;27.05;12.32;;;0.80;99.90;;;;;;5040340;28;20400;-65
2023/03/09 07:07:39;;;;;;;27.10;12.15;;;0.80;99.90;;;;;;5014670;28;20044;-68
2023/03/09 07:10:05;;;;;;;24.27;10.50;;;0.90;99.90;;;;;;5040177;28;20033;-65
2023/03/09 07:12:31;;;;;;;23.17;11.25;;;0.90;99.90;;;;;;5037673;28;20481;-67
2023/03/09 07:14:57;;;;;;;29.58;12.27;;;0.90;99.90;;;;;;5031146;28;20033;-65
2023/03/09 07:17:22;;;;;;;25.85;11.40;;;1.00;99.90;;;;;;5048628;28;20461;-65
2023/03/09 07:19:48;;;;;;;22.90;11.27;;;1.00;99.90;;;;;;5044718;28;20040;-66
2023/03/09 07:22:13;;;;;;;28.40;12.32;;;1.10;99.90;;;;;;5047672;28;20032;-64
2023/03/09 07:24:39;;;;;;;28.65;11.75;;;1.10;99.90;;;;;;5034117;28;20049;-66
2023/03/09 07:27:07;;;;;;;24.23;12.52;;;1.10;99.90;;;;;;5039948;28;20041;-66
2023/03/09 07:29:32;;;;;;;26.23;13.00;;;1.10;99.90;;;;;;5035536;28;20122;-63
2023/03/09 07:32:03;;;;;;;25.90;12.23;;;1.10;99.90;;;;;;5047596;28;22388;-65
2023/03/09 07:34:31;;;;;;;24.98;13.07;;;1.10;99.90;;;;;;5050246;28;20039;-66
2023/03/09 07:36:57;;;;;;;27.95;11.52;;;1.20;99.90;;;;;;5050435;28;20048;-65
2023/03/09 07:39:23;;;;;;;27.17;11.85;;;1.20;99.90;;;;;;5017666;28;20045;-66
2023/03/09 07:41:48;;;;;;;27.75;12.55;;;1.10;99.90;;;;;;5039623;28;20148;-67
2023/03/09 07:44:14;;;;;;;27.60;12.65;;;1.10;99.90;;;;;;5019016;28;20041;-67
2023/03/09 07:46:39;;;;;;;26.60;12.82;;;1.10;99.90;;;;;;5036820;28;20044;-66
2023/03/09 07:49:05;;;;;;;25.35;11.93;;;1.10;99.90;;;;;;5031096;28;20131;-67
2023/03/09 07:51:31;;;;;;;24.58;12.05;;;1.10;99.90;;;;;;5020509;28;20033;-67
2023/03/09 07:53:57;;;;;;;27.77;12.30;;;1.10;99.90;;;;;;5041349;28;20049;-68
2023/03/09 07:56:23;;;;;;;23.70;12.05;;;1.30;99.90;;;;;;5046097;28;20047;-66
2023/03/09 07:58:51;;;;;;;25.38;12.10;;;1.40;99.90;;;;;;5046813;28;20072;-66
2023/03/09 08:01:18;;;;;;;27.88;13.70;;;1.70;99.90;;;;;;5033845;28;20460;-65
2023/03/09 08:03:45;;;;;;;25.58;11.82;;;1.80;99.90;;;;;;5044621;28;20085;-65
2023/03/09 08:06:11;;;;;;;30.73;14.70;;;2.00;99.90;;;;;;5041786;28;20110;-65
2023/03/09 08:08:37;;;;;;;24.88;12.60;;;2.00;99.90;;;;;;5021002;28;20042;-67
2023/03/09 08:11:03;;;;;;;27.92;13.48;;;2.10;99.90;;;;;;5048769;28;20402;-64
2023/03/09 08:13:29;;;;;;;28.38;13.27;;;2.00;99.90;;;;;;5040072;28;20033;-67
2023/03/09 08:15:58;;;;;;;29.90;13.57;;;2.00;99.90;;;;;;5035420;28;20539;-65
2023/03/09 08:18:24;;;;;;;26.17;12.40;;;2.10;99.90;;;;;;5047532;28;20119;-66
2023/03/09 08:20:49;;;;;;;27.67;12.25;;;2.10;99.90;;;;;;5044393;28;20127;-64
2023/03/09 08:23:15;;;;;;;25.48;11.93;;;2.10;99.90;;;;;;5029726;28;20041;-67
2023/03/09 08:25:41;;;;;;;28.45;12.75;;;2.00;99.90;;;;;;5045882;28;20064;-65
2023/03/09 08:28:07;;;;;;;26.98;11.98;;;2.10;99.90;;;;;;5042718;28;20127;-66
2023/03/09 08:30:32;;;;;;;26.48;12.15;;;2.10;99.90;;;;;;5047110;28;20139;-69
2023/03/09 08:32:58;;;;;;;32.80;13.63;;;2.10;99.90;;;;;;5047136;28;20033;-65
2023/03/09 08:35:30;;;;;;;26.67;12.60;;;2.00;99.90;;;;;;5044951;28;20104;-64
2023/03/09 08:37:55;;;;;;;28.50;13.43;;;2.00;99.90;;;;;;5045993;28;20048;-65
2023/03/09 08:40:21;;;;;;;25.83;12.88;;;2.00;99.90;;;;;;5050531;28;20041;-65
2023/03/09 08:42:46;;;;;;;27.15;12.50;;;2.10;99.90;;;;;;5035747;28;20045;-65
2023/03/09 08:45:12;;;;;;;29.95;14.55;;;2.10;99.90;;;;;;5011970;28;20045;-64
2023/03/09 08:47:38;;;;;;;26.88;12.95;;;2.10;99.90;;;;;;5037925;28;20076;-64
2023/03/09 08:50:06;;;;;;;27.02;13.10;;;2.10;99.90;;;;;;5049517;28;20087;-65
2023/03/09 08:52:37;;;;;;;27.52;13.68;;;2.20;99.90;;;;;;5040632;28;20124;-65
2023/03/09 08:55:05;;;;;;;26.10;12.55;;;2.20;99.90;;;;;;5051748;28;20036;-65
2023/03/09 08:57:31;;;;;;;25.80;12.05;;;2.20;99.90;;;;;;5050213;28;20055;-65
2023/03/09 08:59:57;;;;;;;25.67;13.30;;;2.20;99.90;;;;;;5038292;28;20080;-64
2023/03/09 09:02:23;;;;;;;24.30;11.80;;;2.20;99.90;;;;;;5038812;28;20477;-64
2023/03/09 09:04:49;;;;;;;22.20;11.82;;;2.30;99.90;;;;;;5030455;28;20038;-64
2023/03/09 09:07:16;;;;;;;26.50;12.68;;;2.30;99.90;;;;;;5044088;28;20040;-65
2023/03/09 09:09:42;;;;;;;27.92;13.27;;;2.40;99.90;;;;;;5034391;28;20048;-65
2023/03/09 09:12:09;;;;;;;28.67;13.02;;;2.50;99.90;;;;;;5048984;28;20049;-64
2023/03/09 09:14:37;;;;;;;24.75;12.07;;;2.50;99.90;;;;;;5028028;28;20053;-65
2023/03/09 09:17:08;;;;;;;24.55;12.82;;;2.50;99.90;;;;;;5046805;28;20037;-65
2023/03/09 09:19:34;;;;;;;24.85;12.63;;;2.40;99.90;;;;;;5016807;28;20136;-64
2023/03/09 09:22:00;;;;;;;23.67;11.48;;;2.40;99.90;;;;;;5031077;28;20171;-65
2023/03/09 09:24:26;;;;;;;23.00;12.18;;;2.30;99.90;;;;;;5047783;28;20136;-66
2023/03/09 09:26:55;;;;;;;24.67;12.70;;;2.30;99.90;;;;;;5043672;28;20045;-65
2023/03/09 09:29:21;;;;;;;26.15;12.23;;;2.30;99.90;;;;;;5034859;28;20451;-66
2023/03/09 09:31:50;;;;;;;23.40;11.85;;;2.30;99.90;;;;;;5039661;28;20075;-66
2023/03/09 09:34:18;;;;;;;24.88;12.50;;;2.40;99.90;;;;;;5047297;28;20093;-65
2023/03/09 09:36:45;;;;;;;22.73;11.32;;;2.40;99.90;;;;;;5048265;28;20037;-65
2023/03/09 09:39:14;;;;;;;21.30;11.20;;;2.30;99.90;;;;;;5045005;28;20041;-64
2023/03/09 09:41:50;;;;;;;21.63;10.95;;;2.40;99.90;;;;;;5049103;28;20045;-64
2023/03/09 09:44:23;;;;;;;22.05;9.68;;;2.40;99.90;;;;;;5044862;28;20056;-65
2023/03/09 09:46:52;;;;;;;22.65;11.27;;;2.50;99.90;;;;;;5047544;28;20036;-67
2023/03/09 09:49:24;;;;;;;25.92;12.55;;;2.50;99.90;;;;;;5020999;28;20079;-68
2023/03/09 09:51:56;;;;;;;24.40;12.35;;;2.50;99.90;;;;;;5037603;28;20041;-65
2023/03/09 09:54:37;;;;;;;22.38;10.95;;;2.50;99.90;;;;;;5045003;28;20083;-65
2023/03/09 09:57:22;;;;;;;24.88;12.02;;;2.50;99.90;;;;;;5054225;28;20045;-64
2023/03/09 10:00:06;;;;;;;23.80;11.90;;;2.60;99.90;;;;;;5027193;28;20053;-67
2023/03/09 10:02:53;;;;;;;21.83;10.95;;;2.60;99.90;;;;;;5034846;28;20058;-65
2023/03/09 10:05:22;;;;;;;23.40;11.43;;;2.70;99.90;;;;;;5042309;28;20036;-66
2023/03/09 10:07:48;;;;;;;24.77;11.63;;;2.90;99.90;;;;;;5031725;28;20107;-65
2023/03/09 10:10:24;;;;;;;22.48;11.02;;;2.90;99.90;;;;;;5026710;28;20457;-66
2023/03/09 10:12:50;;;;;;;20.10;11.18;;;3.00;99.90;;;;;;5044074;28;20644;-64
2023/03/09 10:15:28;;;;;;;24.08;11.65;;;3.10;99.90;;;;;;5021174;28;20040;-66
2023/03/09 10:17:56;;;;;;;23.77;12.38;;;3.20;99.90;;;;;;5043582;28;20592;-64
2023/03/09 10:20:27;;;;;;;24.17;11.65;;;3.10;99.90;;;;;;5032687;28;20064;-66
2023/03/09 10:22:55;;;;;;;20.23;10.30;;;3.10;99.90;;;;;;5031157;28;20044;-66
2023/03/09 10:25:22;;;;;;;23.63;11.60;;;3.20;99.90;;;;;;5039734;28;20041;-67
2023/03/09 10:28:04;;;;;;;22.98;11.82;;;3.20;99.90;;;;;;5040554;28;20585;-67
2023/03/09 10:30:44;;;;;;;20.45;10.60;;;3.20;99.90;;;;;;5044998;28;20405;-66
2023/03/09 10:33:24;;;;;;;19.30;10.55;;;3.20;99.90;;;;;;5047017;28;20060;-65
2023/03/09 10:35:59;;;;;;;20.27;11.77;;;3.30;99.90;;;;;;5043805;28;20033;-66
2023/03/09 10:38:24;;;;;;;22.25;11.60;;;3.30;99.90;;;;;;5042246;28;20041;-65
2023/03/09 10:40:52;;;;;;;21.45;10.93;;;3.30;99.90;;;;;;5049698;28;20110;-65
2023/03/09 10:43:22;;;;;;;21.70;11.65;;;3.40;99.90;;;;;;5030239;28;20512;-65
2023/03/09 10:45:48;;;;;;;21.77;11.73;;;3.50;99.90;;;;;;5040543;28;20041;-68
2023/03/09 10:48:24;;;;;;;20.38;10.57;;;3.50;99.90;;;;;;5031772;28;20407;-64
2023/03/09 10:51:04;;;;;;;21.90;11.25;;;3.60;99.90;;;;;;5042611;28;20369;-66
2023/03/09 10:53:32;;;;;;;22.25;11.05;;;3.50;99.90;;;;;;5044280;28;20400;-66
2023/03/09 10:56:13;;;;;;;21.52;10.38;;;3.40;99.90;;;;;;5041327;28;20053;-66
2023/03/09 10:58:39;;;;;;;;;;;3.40;99.90;;;;;;5039067;28;20091;-65
2023/03/09 11:01:11;;;;;;;21.13;10.27;;;3.30;99.90;;;;;;5048873;28;19917;-66
2023/03/09 11:03:42;;;;;;;19.55;10.48;;;3.40;99.90;;;;;;5039936;28;20097;-65
2023/03/09 11:06:26;;;;;;;22.80;10.88;;;3.40;99.90;;;;;;5045735;28;20032;-67
2023/03/09 11:09:05;;;;;;;19.55;10.50;;;3.40;99.90;;;;;;5036832;28;20087;-65
2023/03/09 11:11:31;;;;;;;26.00;11.90;;;3.40;99.90;;;;;;5041619;28;20049;-66
2023/03/09 11:13:57;;;;;;;23.00;11.07;;;3.30;99.90;;;;;;5034630;28;20041;-67
2023/03/09 11:16:27;;;;;;;20.40;10.38;;;3.40;99.90;;;;;;5042527;28;20040;-66
2023/03/09 11:19:13;;;;;;;22.63;11.35;;;3.50;99.90;;;;;;5038582;28;20045;-65
2023/03/09 11:22:05;;;;;;;22.20;11.10;;;3.50;99.90;;;;;;5038041;28;20413;-67
2023/03/09 11:24:38;;;;;;;20.13;10.68;;;3.50;99.90;;;;;;5041085;28;20044;-66
2023/03/09 11:27:20;;;;;;;21.40;10.43;;;3.60;99.90;;;;;;5031267;28;20045;-66
2023/03/09 11:30:10;;;;;;;20.75;11.10;;;3.80;99.90;;;;;;5033080;28;20080;-69
2023/03/09 11:32:36;;;;;;;19.60;11.17;;;3.90;99.90;;;;;;5048091;28;20045;-68
2023/03/09 11:35:02;;;;;;;19.13;9.85;;;4.00;99.90;;;;;;5049387;28;20521;-67
2023/03/09 11:37:46;;;;;;;21.25;11.25;;;4.10;99.90;;;;;;5052627;28;20032;-66
2023/03/09 11:40:18;;;;;;;23.15;11.57;;;4.00;99.90;;;;;;5040809;28;20436;-65
2023/03/09 11:42:52;;;;;;;21.20;11.75;;;3.90;99.90;;;;;;5032059;28;20037;-66
2023/03/09 11:45:29;;;;;;;21.05;11.25;;;4.00;99.90;;;;;;5027969;28;20048;-65
2023/03/09 11:48:12;;;;;;;21.33;11.18;;;4.00;99.90;;;;;;5034054;28;20073;-66
2023/03/09 11:50:59;;;;;;;21.05;11.40;;;4.10;99.90;;;;;;5037064;28;20110;-66
2023/03/09 11:53:31;;;;;;;21.80;10.98;;;4.10;99.90;;;;;;5050173;28;20044;-66
2023/03/09 11:56:20;;;;;;;22.30;11.32;;;4.00;99.90;;;;;;5049742;28;20041;-65
2023/03/09 11:58:52;;;;;;;21.10;11.00;;;4.00;99.90;;;;;;5036971;28;20133;-68
2023/03/09 12:01:36;;;;;;;19.23;10.75;;;3.80;99.90;;;;;;5050388;28;20044;-65
2023/03/09 12:04:04;;;;;;;22.48;11.95;;;3.80;99.90;;;;;;5043781;28;20045;-66
2023/03/09 12:06:38;;;;;;;22.33;11.88;;;3.70;99.90;;;;;;5037396;28;20037;-66
2023/03/09 12:09:17;;;;;;;20.50;11.25;;;3.80;99.90;;;;;;5045278;28;20052;-65
2023/03/09 12:11:59;;;;;;;21.70;11.88;;;3.90;99.90;;;;;;5049991;28;20048;-66
2023/03/09 12:14:40;;;;;;;23.35;11.85;;;3.90;99.90;;;;;;5039123;28;20083;-68
2023/03/09 12:17:15;;;;;;;21.73;11.10;;;4.00;99.90;;;;;;5038393;28;20393;-66
2023/03/09 12:19:48;;;;;;;20.67;10.85;;;4.00;99.90;;;;;;5043004;28;20033;-66
2023/03/09 12:22:22;;;;;;;23.75;12.43;;;4.00;99.90;;;;;;5041783;28;20156;-66
2023/03/09 12:25:06;;;;;;;21.52;11.50;;;4.00;99.90;;;;;;5047349;28;20129;-66
2023/03/09 12:27:34;;;;;;;23.33;11.20;;;4.00;99.90;;;;;;5036223;28;20045;-65
2023/03/09 12:29:59;;;;;;;22.52;11.40;;;4.00;99.90;;;;;;5046631;28;20044;-65
2023/03/09 12:32:25;;;;;;;21.48;11.20;;;4.00;99.90;;;;;;5047021;28;20087;-65
2023/03/09 12:34:53;;;;;;;19.02;10.52;;;3.90;99.90;;;;;;5049965;28;20044;-65
2023/03/09 12:37:30;;;;;;;18.88;10.20;;;3.90;99.90;;;;;;5038807;28;20079;-65
2023/03/09 12:40:00;;;;;;;21.67;11.27;;;3.80;99.90;;;;;;5036210;28;20045;-66
2023/03/09 12:42:38;;;;;;;24.25;10.88;;;3.80;99.90;;;;;;5040186;28;20040;-65
2023/03/09 12:45:25;;;;;;;20.00;10.55;;;3.80;99.90;;;;;;5031499;28;20044;-68
2023/03/09 12:48:20;;;;;;;22.65;10.93;;;3.80;99.90;;;;;;5041632;28;20040;-66